Time;durP1;ratioP1;P1;durP2;ratioP2;P2;SDS_P1;SDS_P2;PMS_P1;PMS_P2;Temp;Humidity;BMP_temperature;BMP_pressure;BME280_temperature;BME280_humidity;BME280_pressure;Samples;Min_cycle;Max_cycle;Signal;HPM_P1;HPM_P2
2021/12/10 00:02:05;;;;;;;17.60;3.20;;;5.30;99.90;;;;;;4198982;28;20277;-89
2021/12/10 00:04:08;;;;;;;15.90;3.47;;;5.50;99.90;;;;;;4182440;28;20254;-89
2021/12/10 00:06:11;;;;;;;19.10;4.10;;;5.40;99.90;;;;;;4198997;28;20269;-90
2021/12/10 00:08:12;;;;;;;16.50;3.37;;;5.50;99.90;;;;;;4182259;28;20238;-90
2021/12/10 00:10:18;;;;;;;18.23;4.03;;;5.50;99.90;;;;;;4198832;28;20265;-90
2021/12/10 00:12:26;;;;;;;13.40;3.30;;;5.50;99.90;;;;;;4198874;28;20179;-89
2021/12/10 00:14:30;;;;;;;13.03;3.30;;;5.30;99.90;;;;;;4182132;28;20195;-91
2021/12/10 00:16:32;;;;;;;10.20;3.43;;;5.30;99.90;;;;;;4182367;28;20167;-90
2021/12/10 00:18:36;;;;;;;8.57;2.60;;;5.40;99.90;;;;;;4182402;28;20646;-89
2021/12/10 00:20:38;;;;;;;9.70;3.27;;;5.50;99.90;;;;;;4182059;28;20281;-89
2021/12/10 00:22:50;;;;;;;9.17;2.93;;;5.50;99.90;;;;;;4182219;28;20199;-92
2021/12/10 00:24:53;;;;;;;8.90;2.83;;;5.60;99.90;;;;;;4198638;28;20213;-89
2021/12/10 00:26:54;;;;;;;10.77;2.43;;;5.60;99.90;;;;;;4182107;28;20186;-89
2021/12/10 00:29:03;;;;;;;12.17;2.70;;;5.70;99.90;;;;;;4182075;28;20635;-89
2021/12/10 00:33:30;;;;;;;9.83;2.60;;;5.80;99.90;;;;;;4198314;28;20175;-90
2021/12/10 00:35:32;;;;;;;13.33;2.80;;;5.70;99.90;;;;;;4181946;28;20199;-90
2021/12/10 00:37:33;;;;;;;10.83;2.83;;;5.70;99.90;;;;;;4181975;28;20176;-90
2021/12/10 00:39:42;;;;;;;12.13;2.90;;;5.70;99.90;;;;;;4181765;28;20171;-90
2021/12/10 00:41:42;;;;;;;9.83;2.57;;;5.80;99.90;;;;;;4181814;28;20218;-89
2021/12/10 00:43:44;;;;;;;11.17;2.50;;;5.70;99.90;;;;;;4198238;28;20189;-89
2021/12/10 00:45:45;;;;;;;7.50;2.53;;;5.70;99.90;;;;;;4181690;28;20199;-89
2021/12/10 00:47:47;;;;;;;10.33;2.30;;;5.80;99.90;;;;;;4198238;28;20178;-89
2021/12/10 00:49:48;;;;;;;8.47;2.10;;;5.60;99.90;;;;;;4197834;28;20182;-89
2021/12/10 00:51:49;;;;;;;7.17;2.27;;;5.70;99.90;;;;;;4181758;28;20163;-89
2021/12/10 00:53:52;;;;;;;10.50;2.20;;;5.80;99.90;;;;;;4181878;28;20175;-89
2021/12/10 00:55:53;;;;;;;11.73;2.37;;;5.90;99.90;;;;;;4181568;28;20306;-90
2021/12/10 00:57:55;;;;;;;5.23;2.40;;;5.80;99.90;;;;;;4198186;28;20589;-89
2021/12/10 00:59:56;;;;;;;8.10;2.57;;;5.90;99.90;;;;;;4181543;28;20677;-88
2021/12/10 01:01:58;;;;;;;8.07;2.10;;;6.00;99.90;;;;;;4181620;28;20175;-89
2021/12/10 01:04:14;;;;;;;8.43;1.87;;;6.00;99.90;;;;;;4181382;28;20225;-89
2021/12/10 01:06:17;;;;;;;8.53;2.60;;;6.10;99.90;;;;;;4181312;28;20171;-89
2021/12/10 01:08:19;;;;;;;7.30;1.90;;;6.10;99.90;;;;;;4181776;28;20176;-90
2021/12/10 01:10:25;;;;;;;9.53;1.80;;;6.00;99.90;;;;;;4197850;28;20186;-89
2021/12/10 01:12:33;;;;;;;8.73;2.13;;;6.00;99.90;;;;;;4181405;28;20172;-90
2021/12/10 01:14:55;;;;;;;10.17;1.67;;;5.80;99.90;;;;;;4197595;28;20286;-90
2021/12/10 01:24:37;;;;;;;9.53;2.03;;;5.80;99.90;;;;;;4197765;28;20202;-90
2021/12/10 01:28:52;;;;;;;7.47;1.60;;;5.80;99.90;;;;;;4197785;28;20212;-91
2021/12/10 01:30:52;;;;;;;8.67;1.80;;;5.90;99.90;;;;;;4181082;28;20171;-89
2021/12/10 01:33:00;;;;;;;8.60;1.80;;;5.90;99.90;;;;;;4181234;28;20182;-92
2021/12/10 01:35:02;;;;;;;9.37;2.03;;;6.10;99.90;;;;;;4197991;28;20214;-90
2021/12/10 01:37:03;;;;;;;8.80;1.70;;;5.90;99.90;;;;;;4181341;28;20182;-89
2021/12/10 01:39:23;;;;;;;5.23;1.40;;;6.00;99.90;;;;;;4181381;28;20179;-89
2021/12/10 01:41:29;;;;;;;8.30;1.50;;;6.10;99.90;;;;;;4181190;28;20285;-89
2021/12/10 01:43:34;;;;;;;7.87;1.30;;;6.30;99.90;;;;;;4181118;28;20194;-89
2021/12/10 01:45:46;;;;;;;5.00;1.50;;;6.10;99.90;;;;;;4197627;28;20198;-90
2021/12/10 01:48:02;;;;;;;8.57;1.77;;;6.00;99.90;;;;;;4181162;28;20176;-89
2021/12/10 01:50:06;;;;;;;6.80;1.60;;;6.10;99.90;;;;;;4197644;28;20233;-90
2021/12/10 01:52:07;;;;;;;6.70;1.40;;;6.10;99.90;;;;;;4181122;28;20670;-90
2021/12/10 01:54:17;;;;;;;7.07;1.40;;;6.10;99.90;;;;;;4181184;28;20171;-90
2021/12/10 01:56:24;;;;;;;7.20;1.63;;;6.10;99.90;;;;;;4181022;28;20312;-90
2021/12/10 01:58:29;;;;;;;7.43;1.40;;;6.10;99.90;;;;;;4197520;28;20277;-89
2021/12/10 02:00:32;;;;;;;10.57;1.57;;;6.00;99.90;;;;;;4197353;28;20296;-90
2021/12/10 02:02:35;;;;;;;5.40;1.37;;;5.90;99.90;;;;;;4182730;28;20179;-89
2021/12/10 02:04:39;;;;;;;4.80;1.13;;;6.00;99.90;;;;;;4184288;28;20199;-88
2021/12/10 02:06:40;;;;;;;6.93;1.07;;;6.10;99.90;;;;;;4184188;28;20168;-90
2021/12/10 02:08:42;;;;;;;6.30;1.23;;;6.10;99.90;;;;;;4184188;28;20167;-89
2021/12/10 02:10:46;;;;;;;6.80;1.30;;;5.90;99.90;;;;;;4200847;28;20201;-91
2021/12/10 02:12:47;;;;;;;7.80;1.30;;;6.00;99.90;;;;;;4184175;28;20203;-90
2021/12/10 02:14:58;;;;;;;3.57;1.10;;;6.00;99.90;;;;;;4183834;28;20195;-89
2021/12/10 02:17:00;;;;;;;6.53;0.97;;;5.90;99.90;;;;;;4200679;28;20206;-90
2021/12/10 02:19:00;;;;;;;6.33;1.30;;;5.90;99.90;;;;;;4184229;28;20247;-90
2021/12/10 02:21:01;;;;;;;6.87;0.90;;;5.80;99.90;;;;;;4184065;28;20215;-89
2021/12/10 02:23:06;;;;;;;3.17;1.10;;;5.80;99.90;;;;;;4184402;28;20655;-90
2021/12/10 02:25:07;;;;;;;3.27;0.90;;;6.00;99.90;;;;;;4183768;28;20234;-89
2021/12/10 02:27:08;;;;;;;4.97;0.90;;;5.80;99.90;;;;;;4200408;28;20176;-89
2021/12/10 02:29:11;;;;;;;4.90;1.03;;;5.80;99.90;;;;;;4200490;28;20643;-91
2021/12/10 02:31:14;;;;;;;4.33;0.77;;;5.90;99.90;;;;;;4183878;28;20171;-89
2021/12/10 02:33:15;;;;;;;4.07;0.67;;;5.80;99.90;;;;;;4200368;28;20238;-88
2021/12/10 02:35:17;;;;;;;3.53;0.80;;;5.90;99.90;;;;;;4183694;28;20198;-89
2021/12/10 02:37:18;;;;;;;7.23;0.97;;;5.80;99.90;;;;;;4200132;28;20615;-89
2021/12/10 02:39:23;;;;;;;2.77;0.57;;;5.90;99.90;;;;;;4183901;28;20225;-89
2021/12/10 02:41:32;;;;;;;2.20;0.60;;;5.90;99.90;;;;;;4183936;28;20211;-89
2021/12/10 02:43:33;;;;;;;3.20;0.57;;;5.90;99.90;;;;;;4183667;28;20179;-89
2021/12/10 02:45:36;;;;;;;5.53;0.70;;;6.00;99.90;;;;;;4183801;28;20203;-88
2021/12/10 02:47:37;;;;;;;4.03;0.80;;;5.80;99.90;;;;;;4183767;28;20180;-89
2021/12/10 02:49:38;;;;;;;4.57;0.70;;;5.80;99.90;;;;;;4183564;28;20250;-90
2021/12/10 02:51:40;;;;;;;4.70;0.70;;;5.80;99.90;;;;;;4183737;28;20571;-88
2021/12/10 02:53:45;;;;;;;2.47;0.70;;;5.80;99.90;;;;;;4183507;28;20244;-90
2021/12/10 02:55:46;;;;;;;1.77;0.60;;;5.80;99.90;;;;;;4183334;28;20612;-89
2021/12/10 02:57:50;;;;;;;2.53;0.50;;;5.80;99.90;;;;;;4183339;28;20171;-88
2021/12/10 02:59:51;;;;;;;2.57;0.70;;;5.70;99.90;;;;;;4183477;28;20652;-88
2021/12/10 03:01:53;;;;;;;4.67;0.70;;;5.70;99.90;;;;;;4183431;28;20230;-88
2021/12/10 03:03:54;;;;;;;5.40;0.70;;;5.60;99.90;;;;;;4183416;28;20175;-89
2021/12/10 03:05:55;;;;;;;3.27;0.70;;;5.70;99.90;;;;;;4183484;28;20187;-87
2021/12/10 03:07:57;;;;;;;4.40;0.70;;;5.50;99.90;;;;;;4183359;28;20229;-89
2021/12/10 03:09:57;;;;;;;3.43;1.00;;;5.60;99.90;;;;;;4183363;28;20171;-86
2021/12/10 03:12:00;;;;;;;3.83;0.70;;;5.50;99.90;;;;;;4183263;28;20206;-88
2021/12/10 03:14:06;;;;;;;4.23;0.70;;;5.60;99.90;;;;;;4182721;28;20175;-88
2021/12/10 03:16:07;;;;;;;3.30;0.70;;;5.60;99.90;;;;;;4182987;28;20253;-88
2021/12/10 03:18:13;;;;;;;2.13;0.70;;;5.60;99.90;;;;;;4183192;28;20679;-88
2021/12/10 03:20:20;;;;;;;3.13;0.90;;;5.60;99.90;;;;;;4199757;28;20336;-90
2021/12/10 03:22:21;;;;;;;1.30;0.40;;;5.60;99.90;;;;;;4199679;28;20179;-89
2021/12/10 03:24:25;;;;;;;3.53;0.40;;;5.60;99.90;;;;;;4199575;28;20625;-91
2021/12/10 03:26:26;;;;;;;4.53;0.70;;;5.60;99.90;;;;;;4183280;28;20736;-88
2021/12/10 03:28:27;;;;;;;4.40;0.73;;;5.40;99.90;;;;;;4183256;28;20175;-88
2021/12/10 03:30:32;;;;;;;2.87;0.50;;;5.40;99.90;;;;;;4199537;28;20267;-89
2021/12/10 03:32:33;;;;;;;2.13;0.60;;;5.30;99.90;;;;;;4183088;28;20175;-88
2021/12/10 03:34:35;;;;;;;3.93;0.80;;;5.40;99.90;;;;;;4182951;28;20578;-88
2021/12/10 03:36:36;;;;;;;2.00;0.40;;;5.60;99.90;;;;;;4183075;28;20631;-89
2021/12/10 03:38:39;;;;;;;3.53;0.80;;;5.50;99.90;;;;;;4183216;28;20274;-88
2021/12/10 03:40:40;;;;;;;7.47;0.50;;;5.40;99.90;;;;;;4182750;28;20298;-89
2021/12/10 03:42:41;;;;;;;2.60;0.60;;;5.30;99.90;;;;;;4199689;28;20175;-88
2021/12/10 03:44:42;;;;;;;3.00;0.57;;;5.20;99.90;;;;;;4182877;28;20196;-88
2021/12/10 03:46:44;;;;;;;1.30;0.43;;;5.10;99.90;;;;;;4183016;28;20209;-88
2021/12/10 03:48:45;;;;;;;1.40;0.43;;;5.10;99.90;;;;;;4183029;28;20179;-88
2021/12/10 03:50:48;;;;;;;3.37;0.70;;;5.20;99.90;;;;;;4182826;28;20178;-89
2021/12/10 03:52:48;;;;;;;3.37;0.60;;;5.20;99.90;;;;;;4199358;28;20262;-90
2021/12/10 03:54:50;;;;;;;1.77;0.43;;;5.10;99.90;;;;;;4199476;28;20194;-88
2021/12/10 03:56:51;;;;;;;4.00;0.40;;;5.10;99.90;;;;;;4182735;28;20309;-88
2021/12/10 03:58:53;;;;;;;2.67;0.60;;;5.30;99.90;;;;;;4182600;28;20167;-88
2021/12/10 04:00:55;;;;;;;1.60;0.40;;;5.10;99.90;;;;;;4198750;28;20218;-88
2021/12/10 04:02:57;;;;;;;2.57;0.50;;;4.90;99.90;;;;;;4182302;28;20229;-88
2021/12/10 04:04:58;;;;;;;1.93;0.50;;;5.10;99.90;;;;;;4182053;28;20191;-91
2021/12/10 04:07:02;;;;;;;3.07;0.40;;;5.20;99.90;;;;;;4199112;28;20175;-91
2021/12/10 04:09:05;;;;;;;2.07;0.20;;;5.00;99.90;;;;;;4182437;28;20267;-91
2021/12/10 04:11:08;;;;;;;2.53;0.40;;;5.00;99.90;;;;;;4198756;28;20167;-92
2021/12/10 04:13:10;;;;;;;3.10;0.33;;;5.00;99.90;;;;;;4182516;28;20710;-91
2021/12/10 04:15:14;;;;;;;2.90;0.37;;;4.90;99.90;;;;;;4198996;28;20202;-90
2021/12/10 04:17:19;;;;;;;1.73;0.50;;;4.80;99.90;;;;;;4182353;28;20542;-91
2021/12/10 04:19:19;;;;;;;1.17;0.20;;;4.80;99.90;;;;;;4182011;28;20171;-91
2021/12/10 04:21:21;;;;;;;2.70;0.40;;;4.80;99.90;;;;;;4181970;28;20289;-90
2021/12/10 04:23:24;;;;;;;0.80;0.30;;;4.80;99.90;;;;;;4182079;28;20236;-90
2021/12/10 04:25:25;;;;;;;1.03;0.30;;;4.90;99.90;;;;;;4181152;28;20200;-92
2021/12/10 04:27:29;;;;;;;4.50;0.50;;;4.90;99.90;;;;;;4182382;28;20183;-92
2021/12/10 04:29:31;;;;;;;2.07;0.40;;;5.00;99.90;;;;;;4182160;28;20238;-91
2021/12/10 04:31:34;;;;;;;2.43;0.67;;;5.10;99.90;;;;;;4182101;28;20225;-90
2021/12/10 04:33:38;;;;;;;4.53;0.50;;;5.10;99.90;;;;;;4181927;28;20179;-92
2021/12/10 04:35:39;;;;;;;1.20;0.30;;;5.10;99.90;;;;;;4180913;28;20290;-92
2021/12/10 04:37:42;;;;;;;1.10;0.40;;;5.00;99.90;;;;;;4181758;28;20266;-91
2021/12/10 04:39:46;;;;;;;1.97;0.50;;;5.10;99.90;;;;;;4181881;28;20175;-93
2021/12/10 04:41:47;;;;;;;0.97;0.33;;;5.20;99.90;;;;;;4181745;28;20261;-92
2021/12/10 04:43:52;;;;;;;1.37;0.30;;;5.10;99.90;;;;;;4181822;28;20590;-90
2021/12/10 04:45:55;;;;;;;1.03;0.23;;;5.00;99.90;;;;;;4181786;28;20183;-91
2021/12/10 04:47:58;;;;;;;1.00;0.30;;;4.90;99.90;;;;;;4181680;28;20168;-91
2021/12/10 04:50:00;;;;;;;0.97;0.30;;;4.80;99.90;;;;;;4181878;28;20175;-90
2021/12/10 04:52:03;;;;;;;2.40;0.30;;;4.80;99.90;;;;;;4181655;28;20624;-90
2021/12/10 04:54:08;;;;;;;0.93;0.30;;;4.90;99.90;;;;;;4181695;28;20174;-91
2021/12/10 04:56:09;;;;;;;0.93;0.33;;;4.80;99.90;;;;;;4181564;28;20175;-92
2021/12/10 04:58:10;;;;;;;1.57;0.50;;;4.90;99.90;;;;;;4181563;28;20643;-92
2021/12/10 05:00:16;;;;;;;1.90;0.43;;;5.00;99.90;;;;;;4181299;28;20644;-91
2021/12/10 05:02:17;;;;;;;2.33;0.47;;;5.10;99.90;;;;;;4181542;28;20211;-91
2021/12/10 05:04:19;;;;;;;1.03;0.20;;;5.30;99.90;;;;;;4181510;28;20187;-92
2021/12/10 05:06:20;;;;;;;1.63;0.43;;;5.20;99.90;;;;;;4181580;28;20183;-91
2021/12/10 05:08:21;;;;;;;0.40;0.30;;;5.00;99.90;;;;;;4181522;28;20262;-91
2021/12/10 05:10:25;;;;;;;2.87;0.40;;;5.00;99.90;;;;;;4181516;28;20167;-92
2021/12/10 05:12:26;;;;;;;1.73;0.20;;;5.00;99.90;;;;;;4181567;28;20176;-91
2021/12/10 05:14:28;;;;;;;2.37;0.50;;;5.00;99.90;;;;;;4181467;28;20176;-92
2021/12/10 05:16:30;;;;;;;1.93;0.30;;;5.20;99.90;;;;;;4214565;28;20704;-91
2021/12/10 05:18:35;;;;;;;0.30;0.20;;;5.10;99.90;;;;;;4181415;28;20168;-92
2021/12/10 05:20:39;;;;;;;0.50;0.20;;;5.00;99.90;;;;;;4181328;28;20199;-91
2021/12/10 05:22:43;;;;;;;1.27;0.23;;;4.90;99.90;;;;;;4181381;28;20278;-92
2021/12/10 05:24:43;;;;;;;0.20;0.20;;;4.80;99.90;;;;;;4181618;28;20250;-92
2021/12/10 05:26:45;;;;;;;0.43;0.20;;;4.70;99.90;;;;;;4181428;28;20184;-91
2021/12/10 05:28:48;;;;;;;0.73;0.20;;;4.70;99.90;;;;;;4181254;28;20175;-92
2021/12/10 05:30:54;;;;;;;1.60;0.20;;;4.50;99.90;;;;;;4181113;28;20171;-91
2021/12/10 05:33:03;;;;;;;1.37;0.20;;;4.50;99.90;;;;;;4182103;28;20187;-90
2021/12/10 05:35:06;;;;;;;1.03;0.27;;;4.40;99.90;;;;;;4181631;22;20628;-91
2021/12/10 05:37:07;;;;;;;1.67;0.20;;;4.50;99.90;;;;;;4164863;28;20750;-91
2021/12/10 05:39:10;;;;;;;1.13;0.30;;;4.40;99.90;;;;;;4148488;28;20171;-91
2021/12/10 05:41:11;;;;;;;1.17;0.17;;;4.30;99.90;;;;;;4181191;28;20254;-91
2021/12/10 05:43:13;;;;;;;1.20;0.17;;;4.40;99.90;;;;;;4181223;28;20167;-91
2021/12/10 05:45:15;;;;;;;1.07;0.30;;;4.50;99.90;;;;;;4180969;28;20191;-91
2021/12/10 05:47:16;;;;;;;0.73;0.20;;;4.60;99.90;;;;;;4181234;28;20175;-91
2021/12/10 05:49:17;;;;;;;1.50;0.30;;;4.50;99.90;;;;;;4148376;28;20227;-91
2021/12/10 05:51:18;;;;;;;1.60;0.30;;;4.40;99.90;;;;;;4148148;28;20179;-91
2021/12/10 05:53:19;;;;;;;0.40;0.30;;;4.50;99.90;;;;;;4164534;28;20235;-90
2021/12/10 05:55:20;;;;;;;5.30;0.20;;;4.50;99.90;;;;;;4164539;28;20200;-90
2021/12/10 05:57:21;;;;;;;0.60;0.20;;;4.50;99.90;;;;;;4164654;28;20187;-90
2021/12/10 05:59:22;;;;;;;0.77;0.10;;;4.60;99.90;;;;;;4148476;28;20588;-91
2021/12/10 06:01:24;;;;;;;0.40;0.10;;;4.50;99.90;;;;;;4164674;28;20211;-90
2021/12/10 06:03:25;;;;;;;0.90;0.20;;;4.50;99.90;;;;;;4164571;28;20510;-91
2021/12/10 06:05:28;;;;;;;1.37;0.10;;;4.40;99.90;;;;;;4164534;28;20260;-89
2021/12/10 06:07:29;;;;;;;0.83;0.20;;;4.20;99.90;;;;;;4164463;28;20176;-90
2021/12/10 06:09:30;;;;;;;0.60;0.30;;;4.10;99.90;;;;;;4164445;28;20176;-91
2021/12/10 06:11:30;;;;;;;0.70;0.10;;;4.10;99.90;;;;;;4164637;28;20249;-90
2021/12/10 06:13:31;;;;;;;3.03;0.20;;;4.30;99.90;;;;;;4148180;28;20196;-90
2021/12/10 06:15:32;;;;;;;0.83;0.20;;;4.40;99.90;;;;;;4147793;28;20197;-91
2021/12/10 06:17:33;;;;;;;0.57;0.17;;;4.30;99.90;;;;;;4148223;28;20181;-90
2021/12/10 06:19:34;;;;;;;0.87;0.20;;;4.20;99.90;;;;;;4164369;28;20180;-89
2021/12/10 06:21:37;;;;;;;1.10;0.27;;;4.10;99.90;;;;;;4164433;28;20212;-91
2021/12/10 06:23:38;;;;;;;0.50;0.17;;;4.30;99.90;;;;;;4164404;28;20174;-91
2021/12/10 06:25:39;;;;;;;0.53;0.20;;;4.30;99.90;;;;;;4164281;28;20207;-91
2021/12/10 06:27:44;;;;;;;0.67;0.20;;;4.20;99.90;;;;;;4164701;28;20169;-90
2021/12/10 06:29:45;;;;;;;0.83;0.13;;;4.20;99.90;;;;;;4164411;28;20212;-91
2021/12/10 06:31:45;;;;;;;0.40;0.10;;;4.30;99.90;;;;;;4148155;28;20534;-91
2021/12/10 06:33:46;;;;;;;0.30;0.10;;;4.20;99.90;;;;;;4147915;28;20177;-92
2021/12/10 06:35:50;;;;;;;0.23;0.13;;;4.20;99.90;;;;;;4164289;28;20234;-91
2021/12/10 06:37:53;;;;;;;0.30;0.10;;;4.30;99.90;;;;;;4164545;28;20175;-91
2021/12/10 06:39:54;;;;;;;0.80;0.10;;;4.50;99.90;;;;;;4164522;28;20184;-92
2021/12/10 06:41:55;;;;;;;0.57;0.27;;;4.30;99.90;;;;;;4164361;28;20246;-91
2021/12/10 06:43:56;;;;;;;1.67;0.20;;;4.30;99.90;;;;;;4164318;28;20243;-90
2021/12/10 06:45:57;;;;;;;0.40;0.10;;;4.30;99.90;;;;;;4164169;28;20180;-92
2021/12/10 06:48:01;;;;;;;0.23;0.10;;;4.30;99.90;;;;;;4164850;28;20164;-92
2021/12/10 06:50:04;;;;;;;0.73;0.20;;;4.40;99.90;;;;;;4167364;28;20180;-91
2021/12/10 06:52:06;;;;;;;2.47;0.30;;;4.20;99.90;;;;;;4167245;28;20169;-92
2021/12/10 06:54:06;;;;;;;1.63;0.20;;;4.20;99.90;;;;;;4150687;28;20557;-92
2021/12/10 06:56:08;;;;;;;2.83;0.20;;;4.10;99.90;;;;;;4151029;28;20175;-94
2021/12/10 06:58:10;;;;;;;0.63;0.30;;;4.20;99.90;;;;;;4167193;28;20168;-92
2021/12/10 07:00:21;;;;;;;0.20;0.10;;;4.20;99.90;;;;;;4167006;28;20184;-92
2021/12/10 07:02:22;;;;;;;0.87;0.33;;;4.20;99.90;;;;;;4167094;28;20187;-92
2021/12/10 07:04:23;;;;;;;1.17;0.30;;;4.30;99.90;;;;;;4167047;28;20553;-92
2021/12/10 07:06:27;;;;;;;0.70;0.30;;;4.20;99.90;;;;;;4150606;28;20207;-93
2021/12/10 07:08:32;;;;;;;0.23;0.20;;;4.30;99.90;;;;;;4167114;28;20168;-91
2021/12/10 07:10:34;;;;;;;0.77;0.30;;;4.30;99.90;;;;;;4166977;28;20267;-92
2021/12/10 07:12:37;;;;;;;2.47;0.27;;;4.20;99.90;;;;;;4167236;28;20628;-92
2021/12/10 07:14:38;;;;;;;1.00;0.20;;;4.20;99.90;;;;;;4183657;28;20192;-92
2021/12/10 07:16:39;;;;;;;0.40;0.23;;;4.00;99.90;;;;;;4167125;28;20194;-92
2021/12/10 07:18:41;;;;;;;1.47;0.30;;;4.10;99.90;;;;;;4166967;28;20675;-91
2021/12/10 07:20:44;;;;;;;1.43;0.30;;;4.10;99.90;;;;;;4166862;28;20246;-92
2021/12/10 07:22:45;;;;;;;0.60;0.33;;;4.20;99.90;;;;;;4183253;28;20175;-91
2021/12/10 07:24:46;;;;;;;1.30;0.40;;;4.10;99.90;;;;;;4166758;28;20286;-92
2021/12/10 07:26:48;;;;;;;0.57;0.40;;;4.10;99.90;;;;;;4166908;28;20195;-92
2021/12/10 07:28:49;;;;;;;0.70;0.30;;;4.10;99.90;;;;;;4166806;28;20172;-93
2021/12/10 07:30:51;;;;;;;0.40;0.20;;;4.10;99.90;;;;;;4166568;28;20179;-92
2021/12/10 07:32:52;;;;;;;0.60;0.30;;;4.20;99.90;;;;;;4166779;28;20172;-91
2021/12/10 07:34:53;;;;;;;0.77;0.20;;;4.20;99.90;;;;;;4166549;28;20759;-91
2021/12/10 07:36:53;;;;;;;0.87;0.33;;;4.10;99.90;;;;;;4166576;28;20183;-92
2021/12/10 07:38:58;;;;;;;0.47;0.40;;;3.90;99.90;;;;;;4150277;28;20177;-92
2021/12/10 07:40:58;;;;;;;0.47;0.30;;;3.90;99.90;;;;;;4166676;28;20235;-92
2021/12/10 07:42:59;;;;;;;0.50;0.30;;;3.90;99.90;;;;;;4166534;28;20253;-90
2021/12/10 07:45:02;;;;;;;0.70;0.37;;;3.90;99.90;;;;;;4166165;28;20192;-92
2021/12/10 07:47:08;;;;;;;2.53;0.40;;;3.70;99.90;;;;;;4166330;28;20183;-92
2021/12/10 07:49:17;;;;;;;1.37;0.47;;;3.80;99.90;;;;;;4166343;28;20196;-92
2021/12/10 07:51:22;;;;;;;0.40;0.30;;;3.70;99.90;;;;;;4150160;28;20244;-92
2021/12/10 07:53:25;;;;;;;0.83;0.40;;;3.50;99.90;;;;;;4166263;28;20184;-93
2021/12/10 07:55:29;;;;;;;0.73;0.50;;;3.60;99.90;;;;;;4182432;28;20187;-92
2021/12/10 07:57:30;;;;;;;0.60;0.53;;;3.60;99.90;;;;;;4166192;28;20246;-93
2021/12/10 07:59:31;;;;;;;1.20;0.60;;;3.70;99.90;;;;;;4166055;28;20176;-92
2021/12/10 08:01:33;;;;;;;1.00;0.50;;;3.70;99.90;;;;;;4149419;28;20204;-92
2021/12/10 08:03:33;;;;;;;1.40;0.60;;;3.80;99.90;;;;;;4182418;28;20190;-94
2021/12/10 08:05:34;;;;;;;3.00;0.80;;;3.80;99.90;;;;;;4166028;28;20196;-92
2021/12/10 08:07:35;;;;;;;1.03;0.80;;;3.90;99.90;;;;;;4166215;28;20212;-92
2021/12/10 08:09:36;;;;;;;2.93;0.70;;;4.00;99.90;;;;;;4149909;28;20209;-92
2021/12/10 08:11:38;;;;;;;4.27;0.80;;;4.10;99.90;;;;;;4166008;28;20225;-92
2021/12/10 08:13:40;;;;;;;1.00;0.80;;;3.90;99.90;;;;;;4165861;28;20172;-93
2021/12/10 08:15:41;;;;;;;0.90;0.70;;;4.00;99.90;;;;;;4166147;28;20219;-92
2021/12/10 08:17:43;;;;;;;1.57;1.00;;;4.00;99.90;;;;;;4149205;28;20173;-93
2021/12/10 08:19:44;;;;;;;1.33;0.80;;;3.70;99.90;;;;;;4165833;28;20274;-93
2021/12/10 08:21:45;;;;;;;2.90;1.00;;;3.60;99.90;;;;;;4166108;28;20687;-94
2021/12/10 08:23:46;;;;;;;1.10;0.73;;;3.60;99.90;;;;;;4149484;28;20216;-93
2021/12/10 08:25:47;;;;;;;2.47;0.90;;;3.70;99.90;;;;;;4165650;28;20200;-91
2021/12/10 08:27:52;;;;;;;1.47;0.73;;;3.80;99.90;;;;;;4165686;28;20191;-92
2021/12/10 08:29:53;;;;;;;1.70;0.63;;;3.90;99.90;;;;;;4165481;28;20271;-93
2021/12/10 08:31:54;;;;;;;2.07;0.90;;;4.00;99.90;;;;;;4149282;28;20185;-93
2021/12/10 08:33:55;;;;;;;2.50;0.87;;;3.90;99.90;;;;;;4165660;28;20173;-92
2021/12/10 08:36:01;;;;;;;0.90;0.63;;;4.00;99.90;;;;;;4149229;28;20198;-92
2021/12/10 08:38:03;;;;;;;1.77;0.90;;;3.70;99.90;;;;;;4165696;28;20180;-92
2021/12/10 08:40:06;;;;;;;1.50;0.70;;;3.70;99.90;;;;;;4165369;28;20617;-93
2021/12/10 08:42:07;;;;;;;1.57;0.80;;;3.80;99.90;;;;;;4165446;28;20261;-93
2021/12/10 08:44:10;;;;;;;1.13;0.70;;;4.10;99.90;;;;;;4149119;28;20179;-93
2021/12/10 08:46:14;;;;;;;2.20;0.70;;;4.10;99.90;;;;;;4181783;28;20206;-92
2021/12/10 08:48:14;;;;;;;2.57;0.80;;;3.80;99.90;;;;;;4165585;28;20250;-92
2021/12/10 08:50:18;;;;;;;0.70;0.63;;;3.80;99.90;;;;;;4165233;28;20180;-94
2021/12/10 08:52:19;;;;;;;2.60;0.90;;;3.80;99.90;;;;;;4181697;28;20202;-92
2021/12/10 08:54:24;;;;;;;0.97;0.67;;;3.70;99.90;;;;;;4165160;28;20219;-93
2021/12/10 08:56:26;;;;;;;3.23;1.00;;;3.60;99.90;;;;;;4181933;28;20194;-92
2021/12/10 08:58:28;;;;;;;1.33;0.80;;;3.40;99.90;;;;;;4165198;28;20235;-93
2021/12/10 09:00:30;;;;;;;3.43;0.73;;;3.40;99.90;;;;;;4165162;28;20204;-92
2021/12/10 09:02:31;;;;;;;1.23;0.90;;;3.40;99.90;;;;;;4165174;28;20179;-92
2021/12/10 09:04:33;;;;;;;2.77;1.20;;;3.50;99.90;;;;;;4148802;28;20287;-93
2021/12/10 09:06:37;;;;;;;1.90;1.13;;;3.50;99.90;;;;;;4181618;28;20177;-93
2021/12/10 09:08:39;;;;;;;2.73;1.30;;;3.60;99.90;;;;;;4165093;28;20171;-93
2021/12/10 09:10:43;;;;;;;3.20;1.10;;;3.60;99.90;;;;;;4181362;28;20172;-92
2021/12/10 09:12:44;;;;;;;1.43;0.90;;;3.80;99.90;;;;;;4165203;28;20168;-93
2021/12/10 09:14:49;;;;;;;3.00;0.93;;;4.00;99.90;;;;;;4164894;28;20225;-93
2021/12/10 09:16:50;;;;;;;1.80;1.00;;;4.20;99.90;;;;;;4181732;28;20183;-93
2021/12/10 09:18:58;;;;;;;2.17;1.30;;;4.40;99.90;;;;;;4165158;28;20254;-93
2021/12/10 09:21:02;;;;;;;2.60;1.43;;;4.40;99.90;;;;;;4164993;28;20272;-93
2021/12/10 09:23:03;;;;;;;2.47;1.00;;;4.50;99.90;;;;;;4165189;28;20180;-93
2021/12/10 09:25:05;;;;;;;1.20;1.00;;;4.60;99.90;;;;;;4165059;28;20188;-92
2021/12/10 09:27:07;;;;;;;2.50;1.20;;;4.70;99.90;;;;;;4148468;28;20641;-93
2021/12/10 09:29:12;;;;;;;2.63;1.00;;;4.80;99.90;;;;;;4148395;28;20169;-92
2021/12/10 09:31:14;;;;;;;5.83;1.30;;;4.70;99.90;;;;;;4164861;28;20210;-92
2021/12/10 09:33:16;;;;;;;5.73;1.50;;;4.70;99.90;;;;;;4164887;28;20184;-92
2021/12/10 09:35:19;;;;;;;1.73;1.13;;;5.00;99.90;;;;;;4164543;28;20236;-92
2021/12/10 09:37:22;;;;;;;3.23;1.80;;;5.30;99.90;;;;;;4164748;28;20630;-93
2021/12/10 09:39:24;;;;;;;3.23;1.70;;;5.40;99.90;;;;;;4164729;28;20245;-93
2021/12/10 09:41:27;;;;;;;3.60;1.40;;;5.10;99.90;;;;;;4164545;28;20215;-93
2021/12/10 09:43:28;;;;;;;4.40;1.50;;;5.00;99.90;;;;;;4148520;28;20542;-93
2021/12/10 09:45:31;;;;;;;2.40;1.47;;;4.90;99.90;;;;;;4164436;28;20200;-93
2021/12/10 09:47:32;;;;;;;2.27;1.40;;;4.80;99.90;;;;;;4181174;28;20175;-92
2021/12/10 09:49:33;;;;;;;2.50;1.23;;;4.70;99.90;;;;;;4148527;28;20280;-93
2021/12/10 09:51:39;;;;;;;1.47;1.10;;;4.70;99.90;;;;;;4148531;28;20260;-93
2021/12/10 09:53:43;;;;;;;4.50;1.33;;;4.50;99.90;;;;;;4164958;28;20207;-93
2021/12/10 09:55:46;;;;;;;7.53;3.40;;;4.20;99.90;;;;;;4148479;28;20645;-92
2021/12/10 09:57:48;;;;;;;8.20;3.07;;;3.80;99.90;;;;;;4180945;28;20163;-92
2021/12/10 09:59:51;;;;;;;3.77;2.00;;;3.70;99.90;;;;;;4164907;28;20706;-92
2021/12/10 10:01:54;;;;;;;3.27;1.60;;;3.70;99.90;;;;;;4165029;28;20192;-91
2021/12/10 10:04:00;;;;;;;2.47;1.33;;;3.70;99.90;;;;;;4164625;28;20176;-92
2021/12/10 10:06:02;;;;;;;2.07;1.50;;;3.80;99.90;;;;;;4164881;28;20179;-92
2021/12/10 10:08:07;;;;;;;1.33;1.13;;;4.00;99.90;;;;;;4164802;28;20172;-93
2021/12/10 10:10:13;;;;;;;2.00;1.40;;;4.00;99.90;;;;;;4148284;28;20173;-91
2021/12/10 10:12:19;;;;;;;2.40;1.20;;;3.80;99.90;;;;;;4181375;28;20167;-93
2021/12/10 10:14:20;;;;;;;3.00;1.20;;;3.60;99.90;;;;;;4164929;28;20195;-92
2021/12/10 10:16:24;;;;;;;1.40;1.13;;;3.40;99.90;;;;;;4164586;28;20173;-93
2021/12/10 10:18:27;;;;;;;2.70;1.13;;;3.20;99.90;;;;;;4164161;28;20683;-92
2021/12/10 10:20:33;;;;;;;4.43;1.23;;;3.30;99.90;;;;;;4181006;28;20160;-93
2021/12/10 10:22:34;;;;;;;3.83;1.33;;;3.20;99.90;;;;;;4164657;28;20564;-93
2021/12/10 10:24:35;;;;;;;2.73;1.33;;;3.20;99.90;;;;;;4150746;28;20188;-93
2021/12/10 10:26:54;;;;;;;2.80;1.27;;;3.20;99.90;;;;;;4151057;28;20171;-93
2021/12/10 10:28:55;;;;;;;1.60;1.07;;;3.30;99.90;;;;;;4165467;28;20164;-93
2021/12/10 10:31:12;;;;;;;1.73;1.30;;;3.10;99.90;;;;;;4167330;28;20198;-94
2021/12/10 10:33:13;;;;;;;1.57;1.13;;;3.00;99.90;;;;;;4181667;28;20178;-92
2021/12/10 10:35:22;;;;;;;2.03;1.57;;;2.80;99.90;;;;;;4167387;28;20302;-91
2021/12/10 10:37:23;;;;;;;10.90;5.40;;;2.80;99.90;;;;;;4167720;28;20180;-94
2021/12/10 10:39:30;;;;;;;4.03;2.53;;;2.90;99.90;;;;;;4167588;28;20232;-93
2021/12/10 10:41:33;;;;;;;4.20;2.60;;;2.70;99.90;;;;;;4167532;28;20393;-93
2021/12/10 10:43:36;;;;;;;3.13;1.50;;;2.70;99.90;;;;;;4167549;28;20208;-92
2021/12/10 10:45:42;;;;;;;2.60;1.90;;;2.80;99.90;;;;;;4167209;28;20188;-92
2021/12/10 10:47:47;;;;;;;2.97;1.70;;;2.80;99.90;;;;;;4167762;28;20625;-94
2021/12/10 10:49:54;;;;;;;2.67;1.70;;;2.90;99.90;;;;;;4167406;28;20205;-92
2021/12/10 10:51:56;;;;;;;3.53;2.30;;;2.80;99.90;;;;;;4167624;28;20191;-91
2021/12/10 10:54:00;;;;;;;4.53;2.77;;;2.90;99.90;;;;;;4167376;28;20239;-92
2021/12/10 10:56:05;;;;;;;4.17;3.10;;;3.00;99.90;;;;;;4167450;28;20612;-92
2021/12/10 10:58:13;;;;;;;4.10;2.90;;;3.20;99.90;;;;;;4167385;28;20176;-92
2021/12/10 11:00:28;;;;;;;4.07;3.20;;;3.50;99.90;;;;;;4167323;28;20556;-92